CMB480 EPRZ-EBOS
Flight info
| Callsign | CMB480 |
|---|---|
| Flight time | 1h 52m |
| Altitude | 34000 |
| Route | GOVRI T738 XEVLU Z127 USALO/N0472F340 L984 PADKA DCT OKG L984 OSBIT DCT KONAP DCT ESAMA T880 ADMUM/N0427F240 T880 BATTY DCT SOGRI DCT DENUT |
| Aircraft | MD11/H-SDE1E2E3FGHIJ2J3J4J5M1RWXY/LB1D1 |
Departure
| Time | 2026-05-07 14:59 |
|---|---|
| Airport | Rzeszów-Jasionka Airport (EPRZ) |
Arrival
| Time | 2026-05-07 16:51 |
|---|---|
| Airport | Ostend-Bruges International Airport (EBOS) |
| Time | Latitude | Longitude | Altitude | Speed | Heading |
|---|---|---|---|---|---|
| 2026-05-07 14:27 | 50.11261 | 22.00997 | 710 ft | 0 kts | 1° |
| 2026-05-07 14:43 | 50.11238 | 22.00996 | 713 ft | 4 kts | 1° |
| 2026-05-07 14:44 | 50.11213 | 22.00996 | 714 ft | 2 kts | 1° |
| 2026-05-07 14:44 | 50.11190 | 22.00993 | 715 ft | 4 kts | 29° |
| 2026-05-07 14:44 | 50.11176 | 22.00973 | 715 ft | 4 kts | 76° |
| 2026-05-07 14:44 | 50.11173 | 22.00933 | 715 ft | 4 kts | 92° |
| 2026-05-07 14:45 | 50.11174 | 22.00915 | 716 ft | 1 kts | 91° |
| 2026-05-07 14:45 | 50.11174 | 22.00914 | 716 ft | 0 kts | 91° |
| 2026-05-07 14:48 | 50.11173 | 22.00946 | 715 ft | 8 kts | 91° |
| 2026-05-07 14:49 | 50.11172 | 22.01054 | 715 ft | 10 kts | 91° |
| 2026-05-07 14:49 | 50.11170 | 22.01148 | 714 ft | 8 kts | 91° |
| 2026-05-07 14:49 | 50.11169 | 22.01248 | 714 ft | 11 kts | 91° |
| 2026-05-07 14:49 | 50.11167 | 22.01388 | 714 ft | 15 kts | 91° |
| 2026-05-07 14:50 | 50.11165 | 22.01546 | 698 ft | 14 kts | 91° |
| 2026-05-07 14:50 | 50.11163 | 22.01698 | 699 ft | 14 kts | 91° |
| 2026-05-07 14:50 | 50.11161 | 22.01847 | 704 ft | 14 kts | 91° |
| 2026-05-07 14:50 | 50.11159 | 22.01991 | 701 ft | 13 kts | 91° |
| 2026-05-07 14:51 | 50.11157 | 22.02132 | 699 ft | 13 kts | 91° |
| 2026-05-07 14:51 | 50.11156 | 22.02264 | 699 ft | 11 kts | 91° |
| 2026-05-07 14:51 | 50.11154 | 22.02373 | 699 ft | 9 kts | 91° |
| 2026-05-07 14:51 | 50.11153 | 22.02462 | 699 ft | 7 kts | 91° |
| 2026-05-07 14:52 | 50.11152 | 22.02531 | 699 ft | 6 kts | 91° |
| 2026-05-07 14:52 | 50.11151 | 22.02600 | 691 ft | 8 kts | 91° |
| 2026-05-07 14:52 | 50.11149 | 22.02681 | 694 ft | 6 kts | 96° |
| 2026-05-07 14:52 | 50.11130 | 22.02733 | 692 ft | 5 kts | 137° |
| 2026-05-07 14:53 | 50.11102 | 22.02738 | 695 ft | 5 kts | 179° |
| 2026-05-07 14:53 | 50.11062 | 22.02740 | 699 ft | 6 kts | 179° |
| 2026-05-07 14:53 | 50.11009 | 22.02744 | 695 ft | 8 kts | 169° |
| 2026-05-07 14:53 | 50.10983 | 22.02826 | 696 ft | 11 kts | 90° |
| 2026-05-07 14:54 | 50.10982 | 22.02972 | 696 ft | 16 kts | 91° |
| 2026-05-07 14:54 | 50.10980 | 22.03172 | 693 ft | 22 kts | 91° |
| 2026-05-07 14:54 | 50.10977 | 22.03445 | 697 ft | 28 kts | 91° |
| 2026-05-07 14:54 | 50.10971 | 22.03773 | 691 ft | 31 kts | 92° |
| 2026-05-07 14:55 | 50.10968 | 22.04100 | 689 ft | 29 kts | 91° |
| 2026-05-07 14:55 | 50.10964 | 22.04366 | 684 ft | 17 kts | 91° |
| 2026-05-07 14:55 | 50.10966 | 22.04491 | 687 ft | 7 kts | 79° |
| 2026-05-07 14:55 | 50.10977 | 22.04551 | 684 ft | 3 kts | 85° |
| 2026-05-07 14:56 | 50.10970 | 22.04561 | 685 ft | 1 kts | 134° |
| 2026-05-07 14:56 | 50.10964 | 22.04560 | 684 ft | 1 kts | 169° |
| 2026-05-07 14:56 | 50.10959 | 22.04554 | 682 ft | 1 kts | 206° |
| 2026-05-07 14:56 | 50.10958 | 22.04545 | 679 ft | 1 kts | 240° |
| 2026-05-07 14:57 | 50.10959 | 22.04537 | 679 ft | 1 kts | 272° |
| 2026-05-07 14:57 | 50.10962 | 22.04492 | 684 ft | 7 kts | 270° |
| 2026-05-07 14:57 | 50.10962 | 22.04472 | 687 ft | 0 kts | 271° |
| 2026-05-07 14:58 | 50.10962 | 22.04463 | 687 ft | 5 kts | 271° |
| 2026-05-07 14:58 | 50.10964 | 22.04321 | 681 ft | 21 kts | 271° |
| 2026-05-07 14:58 | 50.10968 | 22.03957 | 690 ft | 58 kts | 271° |
| 2026-05-07 14:59 | 50.10982 | 22.02927 | 696 ft | 129 kts | 271° |
| 2026-05-07 14:59 | 50.11002 | 22.01257 | 845 ft | 168 kts | 271° |
| 2026-05-07 14:59 | 50.11019 | 21.99432 | 1531 ft | 175 kts | 269° |
| 2026-05-07 14:59 | 50.11027 | 21.97500 | 2261 ft | 179 kts | 268° |
| 2026-05-07 15:00 | 50.11040 | 21.95603 | 3166 ft | 176 kts | 268° |
| 2026-05-07 15:00 | 50.11067 | 21.93688 | 3921 ft | 180 kts | 269° |
| 2026-05-07 15:00 | 50.11095 | 21.91569 | 4215 ft | 206 kts | 269° |
| 2026-05-07 15:00 | 50.11125 | 21.89311 | 4804 ft | 210 kts | 269° |
| 2026-05-07 15:01 | 50.11156 | 21.87021 | 5365 ft | 215 kts | 269° |
| 2026-05-07 15:01 | 50.11182 | 21.84492 | 5517 ft | 251 kts | 269° |
| 2026-05-07 15:01 | 50.11212 | 21.81653 | 6117 ft | 265 kts | 269° |
| 2026-05-07 15:01 | 50.11245 | 21.78758 | 7023 ft | 269 kts | 269° |
| 2026-05-07 15:02 | 50.11279 | 21.75819 | 7893 ft | 273 kts | 269° |
| 2026-05-07 15:02 | 50.11312 | 21.72835 | 8764 ft | 278 kts | 269° |
| 2026-05-07 15:02 | 50.11344 | 21.69845 | 9595 ft | 282 kts | 269° |
| 2026-05-07 15:02 | 50.11376 | 21.66736 | 10174 ft | 297 kts | 269° |
| 2026-05-07 15:03 | 50.11407 | 21.63368 | 10308 ft | 325 kts | 269° |
| 2026-05-07 15:03 | 50.11440 | 21.59690 | 10534 ft | 349 kts | 269° |
| 2026-05-07 15:03 | 50.11477 | 21.55883 | 11334 ft | 353 kts | 269° |
| 2026-05-07 15:03 | 50.11514 | 21.52029 | 12148 ft | 357 kts | 269° |
| 2026-05-07 15:04 | 50.11550 | 21.48175 | 12942 ft | 361 kts | 268° |
| 2026-05-07 15:04 | 50.11584 | 21.44237 | 13723 ft | 366 kts | 268° |
| 2026-05-07 15:04 | 50.11570 | 21.40251 | 14393 ft | 369 kts | 266° |
| 2026-05-07 15:04 | 50.11497 | 21.36233 | 15081 ft | 372 kts | 266° |
| 2026-05-07 15:05 | 50.11403 | 21.32197 | 15744 ft | 374 kts | 265° |
| 2026-05-07 15:05 | 50.11303 | 21.28126 | 16411 ft | 377 kts | 265° |
| 2026-05-07 15:05 | 50.11202 | 21.24019 | 17044 ft | 380 kts | 265° |
| 2026-05-07 15:05 | 50.11102 | 21.19873 | 17682 ft | 383 kts | 265° |
| 2026-05-07 15:06 | 50.11002 | 21.15698 | 18300 ft | 386 kts | 265° |
| 2026-05-07 15:06 | 50.10900 | 21.11499 | 18824 ft | 389 kts | 265° |
| 2026-05-07 15:06 | 50.10799 | 21.07320 | 19320 ft | 392 kts | 265° |
| 2026-05-07 15:06 | 50.10708 | 21.03056 | 19928 ft | 394 kts | 265° |
| 2026-05-07 15:07 | 50.10654 | 20.98752 | 20507 ft | 399 kts | 266° |
| 2026-05-07 15:07 | 50.10620 | 20.94400 | 21062 ft | 402 kts | 266° |
| 2026-05-07 15:07 | 50.10594 | 20.90079 | 21570 ft | 405 kts | 266° |
| 2026-05-07 15:07 | 50.10569 | 20.85673 | 22080 ft | 408 kts | 266° |
| 2026-05-07 15:08 | 50.10543 | 20.81241 | 22601 ft | 411 kts | 266° |
| 2026-05-07 15:08 | 50.10514 | 20.76782 | 23124 ft | 413 kts | 266° |
| 2026-05-07 15:08 | 50.10483 | 20.72286 | 23633 ft | 416 kts | 266° |
| 2026-05-07 15:08 | 50.10449 | 20.67764 | 24079 ft | 419 kts | 265° |
| 2026-05-07 15:09 | 50.10413 | 20.63210 | 24558 ft | 422 kts | 265° |
| 2026-05-07 15:09 | 50.10374 | 20.58624 | 25045 ft | 424 kts | 265° |
| 2026-05-07 15:09 | 50.10333 | 20.54008 | 25527 ft | 427 kts | 265° |
| 2026-05-07 15:09 | 50.10290 | 20.49356 | 25999 ft | 429 kts | 265° |
| 2026-05-07 15:10 | 50.10246 | 20.44690 | 26465 ft | 432 kts | 265° |
| 2026-05-07 15:10 | 50.10198 | 20.39994 | 26921 ft | 435 kts | 265° |
| 2026-05-07 15:10 | 50.10149 | 20.35265 | 27376 ft | 438 kts | 265° |
| 2026-05-07 15:10 | 50.10098 | 20.30518 | 27827 ft | 440 kts | 265° |
| 2026-05-07 15:11 | 50.10044 | 20.25725 | 28279 ft | 443 kts | 265° |
| 2026-05-07 15:11 | 50.09988 | 20.20978 | 28706 ft | 446 kts | 265° |
| 2026-05-07 15:11 | 50.09930 | 20.16137 | 29160 ft | 448 kts | 265° |
| 2026-05-07 15:11 | 50.09869 | 20.11272 | 29598 ft | 451 kts | 264° |
| 2026-05-07 15:12 | 50.09806 | 20.06372 | 30065 ft | 452 kts | 264° |
| 2026-05-07 15:12 | 50.09742 | 20.01482 | 30557 ft | 450 kts | 264° |
| 2026-05-07 15:12 | 50.09677 | 19.96615 | 31089 ft | 447 kts | 264° |
| 2026-05-07 15:12 | 50.09496 | 19.91816 | 31586 ft | 440 kts | 258° |
| 2026-05-07 15:13 | 50.09154 | 19.88721 | 31943 ft | 436 kts | 253° |
| 2026-05-07 15:13 | 50.08428 | 19.84159 | 32434 ft | 431 kts | 250° |
| 2026-05-07 15:13 | 50.07318 | 19.78237 | 32988 ft | 428 kts | 249° |
| 2026-05-07 15:13 | 50.06467 | 19.73811 | 33398 ft | 426 kts | 249° |
| 2026-05-07 15:14 | 50.05630 | 19.69394 | 33792 ft | 424 kts | 250° |
| 2026-05-07 15:14 | 50.05073 | 19.66408 | 33888 ft | 424 kts | 250° |
| 2026-05-07 15:14 | 50.03468 | 19.57642 | 33941 ft | 425 kts | 250° |
| 2026-05-07 15:15 | 50.01862 | 19.48787 | 33942 ft | 425 kts | 250° |
| 2026-05-07 15:15 | 50.00256 | 19.39948 | 33935 ft | 425 kts | 250° |
| 2026-05-07 15:16 | 49.98641 | 19.31105 | 33940 ft | 424 kts | 250° |
| 2026-05-07 15:16 | 49.97029 | 19.22328 | 33946 ft | 424 kts | 249° |
| 2026-05-07 15:17 | 49.95403 | 19.13515 | 33947 ft | 424 kts | 249° |
| 2026-05-07 15:17 | 49.94019 | 19.04586 | 33943 ft | 429 kts | 258° |
| 2026-05-07 15:18 | 49.93777 | 18.95240 | 33948 ft | 435 kts | 264° |
| 2026-05-07 15:18 | 49.93822 | 18.85891 | 33947 ft | 435 kts | 264° |
| 2026-05-07 15:19 | 49.93821 | 18.76469 | 33947 ft | 435 kts | 264° |
| 2026-05-07 15:19 | 49.93768 | 18.67067 | 33947 ft | 434 kts | 263° |
| 2026-05-07 15:20 | 49.93693 | 18.57680 | 33945 ft | 434 kts | 263° |
| 2026-05-07 15:20 | 49.93610 | 18.48350 | 33943 ft | 434 kts | 263° |
| 2026-05-07 15:21 | 49.93520 | 18.38967 | 33940 ft | 435 kts | 263° |
| 2026-05-07 15:21 | 49.93446 | 18.29557 | 33939 ft | 436 kts | 264° |
| 2026-05-07 15:22 | 49.93737 | 18.20153 | 33942 ft | 440 kts | 267° |
| 2026-05-07 15:22 | 49.94203 | 18.10662 | 33941 ft | 440 kts | 268° |
| 2026-05-07 15:23 | 49.94666 | 18.01163 | 33939 ft | 441 kts | 268° |
| 2026-05-07 15:23 | 49.95104 | 17.91724 | 33944 ft | 441 kts | 267° |
| 2026-05-07 15:24 | 49.95529 | 17.82215 | 33942 ft | 441 kts | 267° |
| 2026-05-07 15:24 | 49.95947 | 17.72687 | 33942 ft | 442 kts | 267° |
| 2026-05-07 15:25 | 49.96357 | 17.63145 | 33939 ft | 443 kts | 267° |
| 2026-05-07 15:25 | 49.96761 | 17.53583 | 33942 ft | 443 kts | 267° |
| 2026-05-07 15:26 | 49.97156 | 17.44026 | 33951 ft | 444 kts | 267° |
| 2026-05-07 15:26 | 49.97543 | 17.34488 | 33947 ft | 445 kts | 267° |
| 2026-05-07 15:27 | 49.97924 | 17.24877 | 33949 ft | 445 kts | 267° |
| 2026-05-07 15:27 | 49.98296 | 17.15307 | 33942 ft | 446 kts | 267° |
| 2026-05-07 15:28 | 49.98663 | 17.05670 | 33947 ft | 447 kts | 267° |
| 2026-05-07 15:28 | 49.98996 | 16.96013 | 33947 ft | 448 kts | 266° |
| 2026-05-07 15:29 | 49.99308 | 16.86300 | 33950 ft | 449 kts | 266° |
| 2026-05-07 15:29 | 49.99636 | 16.76656 | 33950 ft | 450 kts | 267° |
| 2026-05-07 15:30 | 49.99972 | 16.66927 | 33946 ft | 451 kts | 267° |
| 2026-05-07 15:30 | 50.00304 | 16.57164 | 33945 ft | 452 kts | 267° |
| 2026-05-07 15:31 | 50.00626 | 16.47400 | 33954 ft | 453 kts | 267° |
| 2026-05-07 15:31 | 50.00942 | 16.37602 | 33955 ft | 454 kts | 267° |
| 2026-05-07 15:32 | 50.01249 | 16.27799 | 33940 ft | 454 kts | 267° |
| 2026-05-07 15:32 | 50.01546 | 16.18037 | 33943 ft | 455 kts | 267° |
| 2026-05-07 15:33 | 50.01838 | 16.08193 | 33943 ft | 455 kts | 267° |
| 2026-05-07 15:33 | 50.02121 | 15.98344 | 33943 ft | 456 kts | 267° |
| 2026-05-07 15:34 | 50.02394 | 15.88552 | 33941 ft | 456 kts | 267° |
| 2026-05-07 15:34 | 50.02661 | 15.78694 | 33939 ft | 456 kts | 267° |
| 2026-05-07 15:35 | 50.02903 | 15.68818 | 33940 ft | 456 kts | 267° |
| 2026-05-07 15:35 | 50.03109 | 15.58917 | 33942 ft | 457 kts | 267° |
| 2026-05-07 15:36 | 50.03331 | 15.49063 | 33943 ft | 457 kts | 268° |
| 2026-05-07 15:36 | 50.03562 | 15.39184 | 33951 ft | 457 kts | 268° |
| 2026-05-07 15:37 | 50.03788 | 15.29286 | 33956 ft | 458 kts | 268° |
| 2026-05-07 15:37 | 50.04006 | 15.19378 | 33963 ft | 458 kts | 268° |
| 2026-05-07 15:38 | 50.04215 | 15.09509 | 33965 ft | 459 kts | 268° |
| 2026-05-07 15:38 | 50.04416 | 14.99550 | 33968 ft | 459 kts | 268° |
| 2026-05-07 15:39 | 50.04609 | 14.89607 | 33969 ft | 460 kts | 268° |
| 2026-05-07 15:39 | 50.04792 | 14.79717 | 33969 ft | 460 kts | 268° |
| 2026-05-07 15:40 | 50.04968 | 14.69729 | 33967 ft | 461 kts | 268° |
| 2026-05-07 15:40 | 50.05136 | 14.59763 | 33969 ft | 461 kts | 268° |
| 2026-05-07 15:41 | 50.05295 | 14.49780 | 33971 ft | 461 kts | 269° |
| 2026-05-07 15:41 | 50.05429 | 14.39857 | 33968 ft | 461 kts | 268° |
| 2026-05-07 15:42 | 50.05525 | 14.29875 | 33965 ft | 461 kts | 268° |
| 2026-05-07 15:42 | 50.05638 | 14.19890 | 33968 ft | 461 kts | 269° |
| 2026-05-07 15:43 | 50.05761 | 14.09888 | 33971 ft | 462 kts | 269° |
| 2026-05-07 15:43 | 50.05877 | 13.99958 | 33971 ft | 462 kts | 269° |
| 2026-05-07 15:44 | 50.05986 | 13.89935 | 33971 ft | 462 kts | 269° |
| 2026-05-07 15:44 | 50.06085 | 13.79926 | 33969 ft | 462 kts | 269° |
| 2026-05-07 15:45 | 50.06175 | 13.69977 | 33974 ft | 462 kts | 269° |
| 2026-05-07 15:45 | 50.06257 | 13.59980 | 33979 ft | 462 kts | 269° |
| 2026-05-07 15:46 | 50.06364 | 13.44982 | 33985 ft | 461 kts | 269° |
| 2026-05-07 15:47 | 50.06425 | 13.34998 | 33986 ft | 461 kts | 269° |
| 2026-05-07 15:47 | 50.06476 | 13.25010 | 33989 ft | 461 kts | 269° |
| 2026-05-07 15:48 | 50.06519 | 13.15037 | 33993 ft | 461 kts | 269° |
| 2026-05-07 15:48 | 50.06511 | 13.05054 | 33997 ft | 461 kts | 269° |
| 2026-05-07 15:49 | 50.06504 | 12.95118 | 33995 ft | 461 kts | 269° |
| 2026-05-07 15:49 | 50.06513 | 12.85136 | 33995 ft | 461 kts | 269° |
| 2026-05-07 15:50 | 50.06522 | 12.75139 | 33997 ft | 461 kts | 269° |
| 2026-05-07 15:50 | 50.06524 | 12.65156 | 34001 ft | 461 kts | 269° |
| 2026-05-07 15:51 | 50.06516 | 12.55210 | 34003 ft | 461 kts | 269° |
| 2026-05-07 15:51 | 50.06500 | 12.45210 | 34008 ft | 461 kts | 269° |
| 2026-05-07 15:52 | 50.06554 | 12.35207 | 34007 ft | 461 kts | 270° |
| 2026-05-07 15:52 | 50.06674 | 12.25201 | 34018 ft | 461 kts | 270° |
| 2026-05-07 15:53 | 50.06798 | 12.15272 | 34016 ft | 462 kts | 270° |
| 2026-05-07 15:53 | 50.06913 | 12.05261 | 34019 ft | 462 kts | 270° |
| 2026-05-07 15:54 | 50.07017 | 11.95263 | 34019 ft | 461 kts | 270° |
| 2026-05-07 15:54 | 50.07111 | 11.85328 | 34019 ft | 461 kts | 270° |
| 2026-05-07 15:55 | 50.07196 | 11.75328 | 34018 ft | 461 kts | 270° |
| 2026-05-07 15:55 | 50.07273 | 11.65323 | 34020 ft | 461 kts | 270° |
| 2026-05-07 15:56 | 50.07342 | 11.55328 | 34017 ft | 461 kts | 270° |
| 2026-05-07 15:56 | 50.07401 | 11.45406 | 34020 ft | 461 kts | 270° |
| 2026-05-07 15:57 | 50.07453 | 11.35412 | 34025 ft | 461 kts | 270° |
| 2026-05-07 15:57 | 50.07495 | 11.25436 | 34024 ft | 461 kts | 270° |
| 2026-05-07 15:58 | 50.07528 | 11.15439 | 34028 ft | 460 kts | 270° |
| 2026-05-07 15:58 | 50.07509 | 11.05475 | 34035 ft | 460 kts | 270° |
| 2026-05-07 15:59 | 50.07495 | 10.95568 | 34032 ft | 460 kts | 270° |
| 2026-05-07 15:59 | 50.07496 | 10.85609 | 34027 ft | 460 kts | 270° |
| 2026-05-07 16:00 | 50.07497 | 10.77271 | 34032 ft | 460 kts | 270° |
| 2026-05-07 16:00 | 50.07491 | 10.67383 | 34036 ft | 459 kts | 270° |
| 2026-05-07 16:01 | 50.07475 | 10.57369 | 34035 ft | 460 kts | 270° |
| 2026-05-07 16:01 | 50.07451 | 10.47479 | 34038 ft | 460 kts | 270° |
| 2026-05-07 16:02 | 50.07418 | 10.37505 | 34038 ft | 460 kts | 270° |
| 2026-05-07 16:02 | 50.07377 | 10.27549 | 34039 ft | 460 kts | 270° |
| 2026-05-07 16:03 | 50.07327 | 10.17584 | 34039 ft | 460 kts | 270° |
| 2026-05-07 16:03 | 50.07269 | 10.07618 | 34041 ft | 460 kts | 270° |
| 2026-05-07 16:04 | 50.07202 | 9.97652 | 34041 ft | 460 kts | 269° |
| 2026-05-07 16:04 | 50.07126 | 9.87695 | 34047 ft | 460 kts | 269° |
| 2026-05-07 16:05 | 50.07590 | 9.77851 | 34039 ft | 459 kts | 284° |
| 2026-05-07 16:05 | 50.08632 | 9.73157 | 34045 ft | 460 kts | 295° |
| 2026-05-07 16:05 | 50.10202 | 9.68826 | 34048 ft | 460 kts | 303° |
| 2026-05-07 16:06 | 50.13904 | 9.60669 | 34047 ft | 461 kts | 305° |
| 2026-05-07 16:06 | 50.17544 | 9.52439 | 34046 ft | 461 kts | 301° |
| 2026-05-07 16:07 | 50.20348 | 9.43475 | 34045 ft | 460 kts | 291° |
| 2026-05-07 16:07 | 50.22568 | 9.34098 | 34046 ft | 460 kts | 289° |
| 2026-05-07 16:08 | 50.24748 | 9.24762 | 34046 ft | 460 kts | 290° |
| 2026-05-07 16:08 | 50.26990 | 9.15399 | 34021 ft | 460 kts | 290° |
| 2026-05-07 16:09 | 50.29251 | 9.06034 | 34021 ft | 460 kts | 290° |
| 2026-05-07 16:09 | 50.31507 | 8.96663 | 34021 ft | 460 kts | 290° |
| 2026-05-07 16:10 | 50.33746 | 8.87288 | 34021 ft | 459 kts | 289° |
| 2026-05-07 16:10 | 50.35397 | 8.77751 | 34016 ft | 459 kts | 282° |
| 2026-05-07 16:11 | 50.36678 | 8.67946 | 34019 ft | 460 kts | 281° |
| 2026-05-07 16:11 | 50.37954 | 8.58103 | 34018 ft | 460 kts | 281° |
| 2026-05-07 16:12 | 50.39262 | 8.48286 | 34012 ft | 460 kts | 282° |
| 2026-05-07 16:12 | 50.40568 | 8.38544 | 34015 ft | 460 kts | 282° |
| 2026-05-07 16:13 | 50.41876 | 8.28728 | 34018 ft | 460 kts | 282° |
| 2026-05-07 16:13 | 50.43175 | 8.18913 | 34021 ft | 459 kts | 281° |
| 2026-05-07 16:14 | 50.44466 | 8.09075 | 34023 ft | 459 kts | 281° |
| 2026-05-07 16:14 | 50.45739 | 7.99316 | 34022 ft | 459 kts | 281° |
| 2026-05-07 16:15 | 50.47011 | 7.89492 | 34021 ft | 458 kts | 281° |
| 2026-05-07 16:15 | 50.48273 | 7.79679 | 34015 ft | 458 kts | 281° |
| 2026-05-07 16:16 | 50.49525 | 7.69864 | 34007 ft | 458 kts | 281° |
| 2026-05-07 16:16 | 50.50762 | 7.60105 | 33998 ft | 458 kts | 281° |
| 2026-05-07 16:17 | 50.51959 | 7.50278 | 33989 ft | 457 kts | 280° |
| 2026-05-07 16:17 | 50.53152 | 7.40450 | 33987 ft | 457 kts | 281° |
| 2026-05-07 16:18 | 50.54359 | 7.30641 | 33992 ft | 457 kts | 281° |
| 2026-05-07 16:18 | 50.55567 | 7.20827 | 33993 ft | 457 kts | 281° |
| 2026-05-07 16:19 | 50.56573 | 7.10964 | 33995 ft | 456 kts | 277° |
| 2026-05-07 16:19 | 50.57275 | 7.01040 | 33994 ft | 456 kts | 276° |
| 2026-05-07 16:20 | 50.57937 | 6.91182 | 33996 ft | 456 kts | 276° |
| 2026-05-07 16:20 | 50.58621 | 6.81251 | 33993 ft | 456 kts | 276° |
| 2026-05-07 16:21 | 50.59306 | 6.71345 | 34012 ft | 455 kts | 276° |
| 2026-05-07 16:21 | 50.59984 | 6.61443 | 34017 ft | 455 kts | 276° |
| 2026-05-07 16:22 | 50.60655 | 6.51521 | 34014 ft | 455 kts | 275° |
| 2026-05-07 16:22 | 50.61316 | 6.41623 | 34001 ft | 454 kts | 275° |
| 2026-05-07 16:23 | 50.61963 | 6.31790 | 33993 ft | 454 kts | 275° |
| 2026-05-07 16:23 | 50.62605 | 6.21904 | 33983 ft | 454 kts | 275° |
| 2026-05-07 16:24 | 50.63239 | 6.12015 | 33989 ft | 453 kts | 275° |
| 2026-05-07 16:24 | 50.63865 | 6.02123 | 33990 ft | 453 kts | 275° |
| 2026-05-07 16:25 | 50.64482 | 5.92231 | 33996 ft | 453 kts | 275° |
| 2026-05-07 16:25 | 50.65599 | 5.82469 | 34024 ft | 455 kts | 288° |
| 2026-05-07 16:26 | 50.68041 | 5.73248 | 34040 ft | 456 kts | 293° |
| 2026-05-07 16:26 | 50.70716 | 5.64176 | 34061 ft | 456 kts | 293° |
| 2026-05-07 16:27 | 50.73310 | 5.55076 | 34067 ft | 456 kts | 292° |
| 2026-05-07 16:27 | 50.75858 | 5.45886 | 34068 ft | 457 kts | 292° |
| 2026-05-07 16:28 | 50.78388 | 5.36668 | 34053 ft | 457 kts | 292° |
| 2026-05-07 16:28 | 50.80899 | 5.27487 | 34040 ft | 457 kts | 292° |
| 2026-05-07 16:29 | 50.83420 | 5.18237 | 34019 ft | 457 kts | 292° |
| 2026-05-07 16:29 | 50.85935 | 5.08977 | 34002 ft | 458 kts | 292° |
| 2026-05-07 16:30 | 50.88445 | 4.99697 | 34002 ft | 458 kts | 291° |
| 2026-05-07 16:30 | 50.90930 | 4.90471 | 34015 ft | 458 kts | 291° |
| 2026-05-07 16:31 | 50.93425 | 4.81170 | 34037 ft | 458 kts | 291° |
| 2026-05-07 16:31 | 50.95894 | 4.71936 | 33672 ft | 444 kts | 291° |
| 2026-05-07 16:31 | 50.97088 | 4.67459 | 33145 ft | 437 kts | 291° |
| 2026-05-07 16:32 | 50.98263 | 4.63007 | 32508 ft | 436 kts | 291° |
| 2026-05-07 16:32 | 50.99420 | 4.58550 | 31910 ft | 437 kts | 291° |
| 2026-05-07 16:32 | 51.00581 | 4.54076 | 31328 ft | 439 kts | 291° |
| 2026-05-07 16:32 | 51.01753 | 4.49583 | 30727 ft | 440 kts | 291° |
| 2026-05-07 16:33 | 51.02931 | 4.45084 | 30124 ft | 441 kts | 291° |
| 2026-05-07 16:33 | 51.04098 | 4.40640 | 29473 ft | 442 kts | 291° |
| 2026-05-07 16:33 | 51.05288 | 4.36106 | 28847 ft | 444 kts | 291° |
| 2026-05-07 16:33 | 51.06477 | 4.31571 | 28247 ft | 445 kts | 291° |
| 2026-05-07 16:34 | 51.07668 | 4.27023 | 27641 ft | 446 kts | 291° |
| 2026-05-07 16:34 | 51.08862 | 4.22456 | 27026 ft | 447 kts | 291° |
| 2026-05-07 16:34 | 51.10049 | 4.17904 | 26391 ft | 444 kts | 291° |
| 2026-05-07 16:34 | 51.11226 | 4.13383 | 25747 ft | 440 kts | 291° |
| 2026-05-07 16:35 | 51.12390 | 4.08902 | 25116 ft | 435 kts | 291° |
| 2026-05-07 16:35 | 51.13542 | 4.04460 | 24492 ft | 431 kts | 291° |
| 2026-05-07 16:35 | 51.14666 | 4.00113 | 23871 ft | 428 kts | 291° |
| 2026-05-07 16:35 | 51.15793 | 3.95748 | 23201 ft | 424 kts | 291° |
| 2026-05-07 16:36 | 51.16908 | 3.91422 | 22532 ft | 419 kts | 291° |
| 2026-05-07 16:36 | 51.18007 | 3.87146 | 21912 ft | 416 kts | 291° |
| 2026-05-07 16:36 | 51.19100 | 3.82890 | 21312 ft | 413 kts | 291° |
| 2026-05-07 16:36 | 51.20180 | 3.78672 | 20727 ft | 409 kts | 291° |
| 2026-05-07 16:37 | 51.21249 | 3.74491 | 20136 ft | 405 kts | 291° |
| 2026-05-07 16:37 | 51.22310 | 3.70335 | 19568 ft | 402 kts | 291° |
| 2026-05-07 16:37 | 51.23461 | 3.66291 | 19000 ft | 399 kts | 296° |
| 2026-05-07 16:37 | 51.24773 | 3.62409 | 18406 ft | 395 kts | 299° |
| 2026-05-07 16:38 | 51.26150 | 3.58629 | 17779 ft | 392 kts | 300° |
| 2026-05-07 16:38 | 51.27517 | 3.54885 | 17163 ft | 388 kts | 297° |
| 2026-05-07 16:38 | 51.28545 | 3.50937 | 16579 ft | 383 kts | 284° |
| 2026-05-07 16:38 | 51.28841 | 3.46806 | 16038 ft | 379 kts | 267° |
| 2026-05-07 16:39 | 51.28481 | 3.42653 | 15421 ft | 377 kts | 258° |
| 2026-05-07 16:39 | 51.27866 | 3.38558 | 14468 ft | 381 kts | 256° |
| 2026-05-07 16:39 | 51.27193 | 3.34581 | 13436 ft | 365 kts | 255° |
| 2026-05-07 16:39 | 51.26540 | 3.30694 | 12077 ft | 360 kts | 256° |
| 2026-05-07 16:40 | 51.25919 | 3.26857 | 10802 ft | 355 kts | 256° |
| 2026-05-07 16:40 | 51.25324 | 3.23053 | 9662 ft | 349 kts | 257° |
| 2026-05-07 16:40 | 51.24777 | 3.19478 | 9499 ft | 315 kts | 257° |
| 2026-05-07 16:40 | 51.24286 | 3.16235 | 9363 ft | 287 kts | 257° |
| 2026-05-07 16:41 | 51.24011 | 3.13198 | 9251 ft | 275 kts | 275° |
| 2026-05-07 16:41 | 51.24534 | 3.10303 | 9263 ft | 271 kts | 300° |
| 2026-05-07 16:41 | 51.25606 | 3.07801 | 8731 ft | 282 kts | 308° |
| 2026-05-07 16:41 | 51.26813 | 3.05274 | 7957 ft | 285 kts | 307° |
| 2026-05-07 16:42 | 51.27955 | 3.02709 | 7238 ft | 281 kts | 304° |
| 2026-05-07 16:42 | 51.28998 | 3.00128 | 6745 ft | 269 kts | 300° |
| 2026-05-07 16:42 | 51.29577 | 2.97350 | 6398 ft | 264 kts | 274° |
| 2026-05-07 16:42 | 51.29441 | 2.94420 | 6161 ft | 266 kts | 261° |
| 2026-05-07 16:43 | 51.29083 | 2.91555 | 5896 ft | 266 kts | 259° |
| 2026-05-07 16:43 | 51.28673 | 2.88664 | 5635 ft | 267 kts | 258° |
| 2026-05-07 16:43 | 51.28251 | 2.85767 | 5381 ft | 267 kts | 258° |
| 2026-05-07 16:43 | 51.27827 | 2.82888 | 5120 ft | 265 kts | 258° |
| 2026-05-07 16:44 | 51.27547 | 2.80994 | 4999 ft | 264 kts | 258° |
| 2026-05-07 16:44 | 51.27124 | 2.78136 | 4849 ft | 265 kts | 258° |
| 2026-05-07 16:44 | 51.26699 | 2.75270 | 4691 ft | 264 kts | 258° |
| 2026-05-07 16:44 | 51.26273 | 2.72412 | 4526 ft | 264 kts | 258° |
| 2026-05-07 16:45 | 51.25849 | 2.69560 | 4266 ft | 264 kts | 258° |
| 2026-05-07 16:45 | 51.25423 | 2.66708 | 4005 ft | 262 kts | 258° |
| 2026-05-07 16:45 | 51.25002 | 2.63900 | 3741 ft | 262 kts | 258° |
| 2026-05-07 16:45 | 51.24576 | 2.61064 | 3484 ft | 262 kts | 257° |
| 2026-05-07 16:46 | 51.23956 | 2.58341 | 3206 ft | 263 kts | 241° |
| 2026-05-07 16:46 | 51.22731 | 2.56219 | 2940 ft | 261 kts | 211° |
| 2026-05-07 16:46 | 51.21048 | 2.55355 | 2807 ft | 252 kts | 181° |
| 2026-05-07 16:46 | 51.19319 | 2.55666 | 2677 ft | 251 kts | 164° |
| 2026-05-07 16:47 | 51.17721 | 2.56735 | 2550 ft | 248 kts | 142° |
| 2026-05-07 16:47 | 51.16593 | 2.58711 | 2261 ft | 244 kts | 114° |
| 2026-05-07 16:47 | 51.16229 | 2.61247 | 2079 ft | 231 kts | 84° |
| 2026-05-07 16:47 | 51.16430 | 2.63650 | 1977 ft | 205 kts | 77° |
| 2026-05-07 16:48 | 51.16714 | 2.65783 | 1977 ft | 191 kts | 73° |
| 2026-05-07 16:48 | 51.17027 | 2.67802 | 1955 ft | 184 kts | 74° |
| 2026-05-07 16:48 | 51.17315 | 2.69707 | 1941 ft | 166 kts | 74° |
| 2026-05-07 16:48 | 51.17584 | 2.71491 | 1982 ft | 165 kts | 73° |
| 2026-05-07 16:49 | 51.17851 | 2.73258 | 1750 ft | 163 kts | 73° |
| 2026-05-07 16:49 | 51.18113 | 2.74998 | 1530 ft | 160 kts | 73° |
| 2026-05-07 16:49 | 51.18371 | 2.76717 | 1321 ft | 157 kts | 72° |
| 2026-05-07 16:49 | 51.18623 | 2.78389 | 1084 ft | 154 kts | 72° |
| 2026-05-07 16:50 | 51.18872 | 2.80031 | 824 ft | 151 kts | 73° |
| 2026-05-07 16:50 | 51.19112 | 2.81666 | 599 ft | 151 kts | 75° |
| 2026-05-07 16:50 | 51.19368 | 2.83313 | 346 ft | 154 kts | 73° |
| 2026-05-07 16:50 | 51.19615 | 2.84976 | 133 ft | 154 kts | 76° |
| 2026-05-07 16:51 | 51.19840 | 2.86519 | 30 ft | 121 kts | 74° |
| 2026-05-07 16:51 | 51.20002 | 2.87575 | 26 ft | 77 kts | 76° |
| 2026-05-07 16:51 | 51.20099 | 2.88226 | 22 ft | 43 kts | 76° |
| 2026-05-07 16:51 | 51.20142 | 2.88512 | 27 ft | 19 kts | 76° |
| 2026-05-07 16:52 | 51.20177 | 2.88738 | 26 ft | 24 kts | 76° |
| 2026-05-07 16:52 | 51.20221 | 2.89031 | 28 ft | 30 kts | 77° |
| 2026-05-07 16:52 | 51.20267 | 2.89342 | 23 ft | 27 kts | 76° |
| 2026-05-07 16:52 | 51.20308 | 2.89617 | 26 ft | 24 kts | 76° |
| 2026-05-07 16:53 | 51.20320 | 2.89799 | 25 ft | 12 kts | 110° |
| 2026-05-07 16:53 | 51.20262 | 2.89864 | 28 ft | 10 kts | 170° |
| 2026-05-07 16:53 | 51.20185 | 2.89817 | 28 ft | 13 kts | 222° |
| 2026-05-07 16:53 | 51.20127 | 2.89723 | 28 ft | 11 kts | 226° |
| 2026-05-07 16:54 | 51.20077 | 2.89638 | 28 ft | 10 kts | 227° |
| 2026-05-07 16:54 | 51.20019 | 2.89567 | 28 ft | 13 kts | 206° |
| 2026-05-07 16:54 | 51.19937 | 2.89528 | 27 ft | 12 kts | 190° |
| 2026-05-07 16:54 | 51.19874 | 2.89526 | 25 ft | 4 kts | 147° |
| 2026-05-07 16:55 | 51.19857 | 2.89586 | 24 ft | 7 kts | 104° |
| 2026-05-07 16:55 | 51.19851 | 2.89640 | 27 ft | 0 kts | 99° |